createdAt,value
2019-05-02T00:00:13.651Z,7.30
2019-05-02T00:02:43.446Z,6.80
2019-05-02T00:05:13.094Z,6.17
2019-05-02T00:07:43.802Z,6.23
2019-05-02T00:10:15.168Z,6.53
2019-05-02T00:12:45.498Z,6.97
2019-05-02T00:15:17.056Z,7.50
2019-05-02T00:17:46.848Z,6.40
2019-05-02T00:20:21.175Z,6.73
2019-05-02T00:22:52.289Z,6.40
2019-05-02T00:25:19.677Z,6.73
2019-05-02T00:27:49.162Z,7.50
2019-05-02T00:30:19.810Z,6.37
2019-05-02T00:32:53.179Z,6.87
2019-05-02T00:35:20.439Z,6.27
2019-05-02T00:37:50.113Z,6.83
2019-05-02T00:40:20.107Z,6.43
2019-05-02T00:42:53.318Z,6.70
2019-05-02T00:45:23.995Z,7.43
2019-05-02T00:47:59.855Z,6.93
2019-05-02T00:50:33.038Z,6.63
2019-05-02T00:53:02.581Z,7.37
2019-05-02T00:55:33.858Z,7.43
2019-05-02T00:58:03.140Z,6.80
2019-05-02T01:00:37.669Z,6.53
2019-05-02T01:03:11.063Z,7.07
2019-05-02T01:05:40.047Z,7.07
2019-05-02T01:08:09.564Z,7.23
2019-05-02T01:10:39.184Z,6.70
2019-05-02T01:13:08.543Z,6.63
2019-05-02T01:15:39.098Z,7.53
2019-05-02T01:18:09.684Z,6.80
2019-05-02T01:20:39.172Z,7.07
2019-05-02T01:23:08.764Z,6.77
2019-05-02T01:25:38.246Z,7.03
2019-05-02T01:28:18.968Z,6.97
2019-05-02T01:31:13.204Z,7.20
2019-05-02T01:34:00.510Z,6.93
2019-05-02T01:36:44.813Z,6.63
2019-05-02T01:39:14.323Z,7.57
2019-05-02T01:41:43.805Z,6.50
2019-05-02T01:44:13.514Z,6.97
2019-05-02T01:46:43.079Z,6.57
2019-05-02T01:49:16.742Z,7.73
2019-05-02T01:51:47.429Z,7.33
2019-05-02T01:54:14.807Z,6.60
2019-05-02T01:56:44.131Z,6.20
2019-05-02T01:59:13.495Z,7.57
2019-05-02T02:01:43.030Z,6.87
2019-05-02T02:04:16.247Z,7.43
2019-05-02T02:06:45.157Z,7.00
2019-05-02T02:09:14.624Z,6.90
2019-05-02T02:11:44.108Z,7.07
2019-05-02T02:14:18.303Z,6.60
2019-05-02T02:16:44.780Z,7.17
2019-05-02T02:19:22.732Z,7.30
2019-05-02T02:22:08.573Z,7.27
2019-05-02T02:24:42.050Z,7.53
2019-05-02T02:27:11.529Z,7.20
2019-05-02T02:29:44.035Z,7.23
2019-05-02T02:32:12.044Z,6.50
2019-05-02T02:34:41.396Z,7.30
2019-05-02T02:37:12.962Z,6.57
2019-05-02T02:39:42.051Z,6.70
2019-05-02T02:42:11.777Z,6.97
2019-05-02T02:44:53.524Z,7.03
2019-05-02T02:47:22.863Z,6.63
2019-05-02T02:49:55.737Z,6.70
2019-05-02T02:52:23.388Z,6.67
2019-05-02T02:54:52.848Z,6.57
2019-05-02T02:57:28.013Z,7.23
2019-05-02T02:59:59.275Z,7.30
2019-05-02T03:02:24.603Z,6.70
2019-05-02T03:04:53.960Z,7.10
2019-05-02T03:07:26.015Z,7.17
2019-05-02T03:09:59.558Z,7.50
2019-05-02T03:12:44.065Z,6.87
2019-05-02T03:15:21.235Z,7.03
2019-05-02T03:17:50.009Z,7.00
2019-05-02T03:20:19.636Z,7.33
2019-05-02T03:22:49.209Z,7.30
2019-05-02T03:25:26.992Z,6.87
2019-05-02T03:27:49.902Z,7.33
2019-05-02T03:30:31.357Z,7.27
2019-05-02T03:33:05.769Z,7.10
2019-05-02T03:35:40.260Z,7.33
2019-05-02T03:37:54.099Z,6.50
2019-05-02T03:40:23.758Z,6.30
2019-05-02T03:42:53.160Z,7.43
2019-05-02T03:45:22.848Z,7.43
2019-05-02T03:47:52.199Z,7.27
2019-05-02T03:50:31.267Z,7.73
2019-05-02T03:52:53.033Z,7.43
2019-05-02T03:55:23.756Z,7.17
2019-05-02T03:57:53.648Z,7.60
2019-05-02T04:00:24.329Z,7.23
2019-05-02T04:03:00.315Z,7.47
2019-05-02T04:05:26.810Z,7.23
2019-05-02T04:07:56.317Z,7.47
2019-05-02T04:11:10.648Z,6.70
2019-05-02T04:13:40.896Z,7.67
2019-05-02T04:16:15.344Z,7.77
2019-05-02T04:18:49.311Z,7.93
2019-05-02T04:21:14.020Z,7.27
2019-05-02T04:23:44.461Z,7.23
2019-05-02T04:26:16.650Z,7.53
2019-05-02T04:28:51.542Z,7.83
2019-05-02T04:31:17.486Z,7.20
2019-05-02T04:33:46.891Z,6.77
2019-05-02T04:36:17.933Z,7.60
2019-05-02T04:38:51.683Z,6.90
2019-05-02T04:41:28.508Z,7.53
2019-05-02T04:43:55.934Z,7.63
2019-05-02T04:46:27.119Z,7.93
2019-05-02T04:48:53.257Z,7.97
2019-05-02T04:51:25.614Z,7.53
2019-05-02T04:53:54.172Z,7.30
2019-05-02T04:56:23.924Z,7.47
2019-05-02T04:58:53.281Z,8.33
2019-05-02T05:01:22.895Z,7.50
2019-05-02T05:03:58.176Z,7.40
2019-05-02T05:06:23.821Z,7.27
2019-05-02T05:08:53.345Z,7.27
2019-05-02T05:11:25.024Z,7.23
2019-05-02T05:13:57.463Z,7.53
2019-05-02T05:16:25.442Z,7.73
2019-05-02T05:18:54.917Z,7.13
2019-05-02T05:21:24.994Z,8.27
2019-05-02T05:24:18.136Z,7.60
2019-05-02T05:26:50.880Z,7.90
2019-05-02T05:29:23.288Z,8.20
2019-05-02T05:31:55.102Z,7.70
2019-05-02T05:34:27.448Z,8.03
2019-05-02T05:36:53.824Z,8.30
2019-05-02T05:39:23.187Z,8.03
2019-05-02T05:41:52.561Z,7.70
2019-05-02T05:44:23.201Z,7.67
2019-05-02T05:46:53.536Z,8.77
2019-05-02T05:49:22.944Z,8.00
2019-05-02T05:51:54.554Z,8.00
2019-05-02T05:54:23.593Z,8.87
2019-05-02T05:56:52.972Z,8.23
2019-05-02T05:59:27.345Z,9.20
2019-05-02T06:01:53.608Z,9.67
2019-05-02T06:04:24.945Z,8.90
2019-05-02T06:06:58.807Z,9.13
2019-05-02T06:09:26.415Z,9.17
2019-05-02T06:11:56.675Z,8.80
2019-05-02T06:14:26.321Z,8.57
2019-05-02T06:16:55.943Z,8.77
2019-05-02T06:19:25.437Z,9.37
2019-05-02T06:21:54.835Z,9.50
2019-05-02T06:24:24.236Z,9.47
2019-05-02T06:26:53.874Z,9.53
2019-05-02T06:29:23.276Z,10.17
2019-05-02T06:31:52.815Z,9.23
2019-05-02T06:34:22.399Z,9.03
2019-05-02T06:36:51.978Z,10.37
2019-05-02T06:39:21.359Z,10.53
2019-05-02T06:41:52.115Z,9.33
2019-05-02T06:44:23.842Z,9.87
2019-05-02T06:46:53.115Z,9.53
2019-05-02T06:49:24.302Z,9.17
2019-05-02T06:51:56.394Z,9.10
2019-05-02T06:54:25.208Z,9.60
2019-05-02T06:56:54.888Z,9.70
2019-05-02T06:59:24.464Z,9.53
2019-05-02T07:01:57.326Z,8.87
2019-05-02T07:04:25.856Z,9.83
2019-05-02T07:06:59.253Z,10.70
2019-05-02T07:09:39.181Z,9.53
2019-05-02T07:12:01.376Z,9.43
2019-05-02T07:14:29.567Z,8.93
2019-05-02T07:17:36.448Z,8.50
2019-05-02T07:20:05.354Z,9.27
2019-05-02T07:22:38.757Z,8.97
2019-05-02T07:25:08.954Z,9.20
2019-05-02T07:27:39.347Z,8.73
2019-05-02T07:30:11.068Z,9.13
2019-05-02T07:32:41.603Z,8.93
2019-05-02T07:35:11.113Z,9.30
2019-05-02T07:37:43.991Z,8.47
2019-05-02T07:40:16.717Z,8.70
2019-05-02T07:42:43.416Z,7.53
2019-05-02T07:45:13.444Z,8.97
2019-05-02T07:47:42.807Z,8.27
2019-05-02T07:50:13.905Z,8.50
2019-05-02T07:52:43.479Z,8.17
2019-05-02T07:55:13.102Z,8.00
2019-05-02T07:57:42.521Z,7.67
2019-05-02T08:00:13.602Z,8.10
2019-05-02T08:02:43.072Z,8.30
2019-05-02T08:05:15.849Z,8.00
2019-05-02T08:07:43.937Z,7.40
2019-05-02T08:10:16.289Z,7.57
2019-05-02T08:12:46.520Z,7.30
2019-05-02T08:15:16.363Z,6.97
2019-05-02T08:17:53.155Z,7.80
2019-05-02T08:20:18.997Z,7.13
2019-05-02T08:22:50.265Z,6.50
2019-05-02T08:25:20.264Z,5.17
2019-05-02T08:27:58.141Z,5.50
2019-05-02T08:30:35.312Z,5.00
2019-05-02T08:33:02.448Z,5.63
2019-05-02T08:35:32.094Z,5.33
2019-05-02T08:38:01.657Z,5.20
2019-05-02T08:40:31.274Z,5.40
2019-05-02T08:43:03.548Z,5.17
2019-05-02T08:45:33.090Z,5.03
2019-05-02T08:48:05.109Z,5.97
2019-05-02T08:50:35.204Z,6.00
2019-05-02T08:53:04.648Z,5.27
2019-05-02T08:55:34.161Z,5.53
2019-05-02T08:58:06.698Z,5.20
2019-05-02T09:00:37.634Z,4.83
2019-05-02T09:03:06.734Z,4.60
2019-05-02T09:05:42.861Z,4.40
2019-05-02T09:08:09.229Z,4.33
2019-05-02T09:10:42.287Z,4.73
2019-05-02T09:13:10.090Z,5.10
2019-05-02T09:15:40.192Z,4.80
2019-05-02T09:18:12.408Z,5.03
2019-05-02T09:20:42.405Z,5.17
2019-05-02T09:23:12.380Z,4.73
2019-05-02T09:25:42.982Z,7.20
2019-05-02T09:28:16.991Z,4.90
2019-05-02T09:30:46.728Z,4.47
2019-05-02T09:33:15.618Z,4.93
2019-05-02T09:35:45.071Z,5.00
2019-05-02T09:38:16.305Z,4.97
2019-05-02T09:40:47.195Z,4.97
2019-05-02T09:43:17.552Z,4.77
2019-05-02T09:45:47.212Z,4.60
2019-05-02T09:48:17.235Z,4.80
2019-05-02T09:50:48.308Z,4.47
2019-05-02T09:53:20.884Z,4.90
2019-05-02T09:55:53.479Z,4.57
2019-05-02T09:58:21.904Z,4.40
2019-05-02T10:00:58.709Z,4.73
2019-05-02T10:03:28.180Z,4.50
2019-05-02T10:05:57.677Z,4.70
2019-05-02T10:08:27.198Z,4.33
2019-05-02T10:10:56.782Z,4.60
2019-05-02T10:13:26.286Z,4.37
2019-05-02T10:15:55.845Z,4.33
2019-05-02T10:18:30.011Z,4.20
2019-05-02T10:20:56.631Z,4.20
2019-05-02T10:23:26.189Z,4.07
2019-05-02T10:25:55.567Z,4.63
2019-05-02T10:28:25.076Z,4.17
2019-05-02T10:30:56.689Z,4.27
2019-05-02T10:33:28.006Z,4.07
2019-05-02T10:35:57.516Z,4.20
2019-05-02T10:38:26.920Z,4.10
2019-05-02T10:41:01.521Z,4.43
2019-05-02T10:43:28.088Z,4.53
2019-05-02T10:46:02.900Z,4.33
2019-05-02T10:48:33.935Z,4.43
2019-05-02T10:51:34.695Z,4.40
2019-05-02T10:54:06.683Z,3.63
2019-05-02T10:56:36.979Z,3.80
2019-05-02T10:59:07.024Z,4.20
2019-05-02T11:01:54.468Z,4.50
2019-05-02T11:04:29.018Z,4.10
2019-05-02T11:06:56.717Z,4.33
2019-05-02T11:09:26.592Z,4.83
2019-05-02T11:11:56.314Z,4.60
2019-05-02T11:14:32.848Z,4.33
2019-05-02T11:17:22.664Z,4.67
2019-05-02T11:19:59.092Z,4.10
2019-05-02T11:22:28.856Z,4.00
2019-05-02T11:24:58.438Z,4.67
2019-05-02T11:27:27.895Z,4.27
2019-05-02T11:29:57.356Z,4.70
2019-05-02T11:32:26.797Z,4.23
2019-05-02T11:34:56.357Z,4.90
2019-05-02T11:37:25.970Z,4.30
2019-05-02T11:40:00.249Z,3.90
2019-05-02T11:42:27.403Z,4.33
2019-05-02T11:44:56.906Z,4.00
2019-05-02T11:47:26.686Z,4.40
2019-05-02T11:49:56.613Z,3.80
2019-05-02T11:52:27.418Z,4.13
2019-05-02T11:54:57.561Z,3.83
2019-05-02T11:57:28.655Z,4.37
2019-05-02T11:59:59.452Z,4.53
2019-05-02T12:02:53.133Z,4.07
2019-05-02T12:05:22.234Z,4.30
2019-05-02T12:07:52.561Z,4.00
2019-05-02T12:10:22.288Z,4.93
2019-05-02T12:12:52.718Z,4.60
2019-05-02T12:15:22.241Z,4.67
2019-05-02T12:17:51.969Z,4.70
2019-05-02T12:20:22.765Z,4.20
2019-05-02T12:22:52.913Z,4.53
2019-05-02T12:25:22.447Z,4.33
2019-05-02T12:27:55.597Z,4.03
2019-05-02T12:30:29.094Z,4.00
2019-05-02T12:33:02.491Z,4.23
2019-05-02T12:35:32.302Z,4.07
2019-05-02T12:38:02.702Z,4.40
2019-05-02T12:40:32.583Z,4.20
2019-05-02T12:43:02.523Z,4.40
2019-05-02T12:45:33.718Z,4.10
2019-05-02T12:48:03.607Z,4.10
2019-05-02T12:50:33.132Z,4.37
2019-05-02T12:53:03.057Z,4.30
2019-05-02T12:55:32.705Z,4.43
2019-05-02T12:58:03.394Z,4.47
2019-05-02T13:00:33.077Z,5.13
2019-05-02T13:03:07.573Z,5.67
2019-05-02T13:05:37.108Z,5.30
2019-05-02T13:08:06.618Z,5.03
2019-05-02T13:11:01.911Z,5.73
2019-05-02T13:13:25.983Z,5.17
2019-05-02T13:15:55.574Z,5.00
2019-05-02T13:18:32.477Z,4.70
2019-05-02T13:21:02.114Z,5.00
2019-05-02T13:23:48.876Z,4.73
2019-05-02T13:26:21.845Z,4.47
2019-05-02T13:28:51.619Z,4.50
2019-05-02T13:31:36.517Z,4.40
2019-05-02T13:34:22.092Z,5.23
2019-05-02T13:36:51.987Z,5.33
2019-05-02T13:39:34.455Z,5.30
2019-05-02T13:42:04.624Z,5.30
2019-05-02T13:44:37.124Z,5.50
2019-05-02T13:47:09.315Z,5.30
2019-05-02T13:49:52.837Z,5.30
2019-05-02T13:52:11.802Z,4.80
2019-05-02T13:54:42.639Z,4.97
2019-05-02T13:57:12.257Z,5.30
2019-05-02T13:59:41.808Z,5.00
2019-05-02T14:02:31.971Z,4.70
2019-05-02T14:05:02.276Z,4.50
2019-05-02T14:07:32.665Z,4.50
2019-05-02T14:10:06.639Z,4.70
2019-05-02T14:12:52.921Z,5.00
2019-05-02T14:15:25.130Z,5.70
2019-05-02T14:17:54.825Z,5.20
2019-05-02T14:20:24.312Z,5.20
2019-05-02T14:22:53.806Z,5.67
2019-05-02T14:25:23.211Z,5.17
2019-05-02T14:27:55.679Z,5.10
2019-05-02T14:30:36.048Z,5.53
2019-05-02T14:32:58.758Z,5.60
2019-05-02T14:35:32.549Z,5.37
2019-05-02T14:38:13.323Z,5.90
2019-05-02T14:41:00.396Z,6.93
2019-05-02T14:43:48.325Z,6.03
2019-05-02T14:46:18.890Z,5.20
2019-05-02T14:48:49.454Z,5.13
2019-05-02T14:51:22.938Z,6.43
2019-05-02T14:53:52.346Z,4.33
2019-05-02T14:56:27.014Z,5.93
2019-05-02T14:58:56.971Z,6.30
2019-05-02T15:01:26.656Z,6.00
2019-05-02T15:03:58.473Z,6.13
2019-05-02T15:06:30.873Z,5.57
2019-05-02T15:08:59.392Z,5.47
2019-05-02T15:11:32.257Z,5.53
2019-05-02T15:14:00.570Z,6.00
2019-05-02T15:16:40.458Z,6.67
2019-05-02T15:19:02.158Z,6.30
2019-05-02T15:21:47.173Z,6.47
2019-05-02T15:24:15.905Z,6.17
2019-05-02T15:26:45.380Z,5.87
2019-05-02T15:29:19.863Z,5.37
2019-05-02T15:31:57.870Z,4.67
2019-05-02T15:34:47.784Z,5.47
2019-05-02T15:37:17.084Z,5.07
2019-05-02T15:42:22.826Z,6.17
2019-05-02T15:44:52.222Z,5.90
2019-05-02T15:47:22.490Z,4.33
2019-05-02T15:49:52.778Z,4.00
2019-05-02T15:52:27.980Z,4.70
2019-05-02T15:55:00.447Z,4.73
2019-05-02T15:57:40.981Z,4.57
2019-05-02T16:00:01.651Z,3.83
2019-05-02T16:02:32.292Z,3.63
2019-05-02T16:05:05.324Z,3.50
2019-05-02T16:07:38.145Z,3.50
2019-05-02T16:10:06.322Z,3.47
2019-05-02T16:12:36.675Z,4.63
2019-05-02T16:15:13.217Z,36.40
2019-05-02T16:17:38.826Z,18.50
2019-05-02T16:20:17.205Z,7.07
2019-05-02T16:22:49.868Z,9.47
2019-05-02T16:25:20.076Z,10.87
2019-05-02T16:27:49.473Z,7.50
2019-05-02T16:30:22.489Z,6.27
2019-05-02T16:32:58.049Z,6.97
2019-05-02T16:35:29.088Z,5.83
2019-05-02T16:37:58.841Z,7.63
2019-05-02T16:40:31.890Z,7.30
2019-05-02T16:43:02.663Z,5.50
2019-05-02T16:45:32.746Z,5.10
2019-05-02T16:48:03.299Z,7.70
2019-05-02T16:50:36.640Z,9.00
2019-05-02T16:53:05.001Z,9.00
2019-05-02T16:55:34.941Z,8.27
2019-05-02T16:58:06.913Z,5.93
2019-05-02T17:00:36.826Z,5.57
2019-05-02T17:03:07.861Z,4.90
2019-05-02T17:05:39.264Z,5.73
2019-05-02T17:08:28.072Z,6.00
2019-05-02T17:11:04.628Z,6.03
2019-05-02T17:13:35.840Z,7.33
2019-05-02T17:16:13.130Z,7.90
2019-05-02T17:18:38.352Z,7.10
2019-05-02T17:21:08.829Z,5.33
2019-05-02T17:23:42.845Z,6.97
2019-05-02T17:26:12.166Z,5.30
2019-05-02T17:28:45.328Z,6.93
2019-05-02T17:31:19.582Z,5.80
2019-05-02T17:33:46.151Z,7.37
2019-05-02T17:36:16.804Z,6.30
2019-05-02T17:38:48.319Z,6.60
2019-05-02T17:41:18.222Z,6.60
2019-05-02T17:43:49.030Z,6.53
2019-05-02T17:46:21.932Z,7.23
2019-05-02T17:48:52.704Z,7.20
2019-05-02T17:51:42.455Z,7.70
2019-05-02T17:54:12.557Z,9.67
2019-05-02T17:56:43.141Z,9.00
2019-05-02T17:59:13.268Z,7.47
2019-05-02T18:01:42.946Z,7.20
2019-05-02T18:04:16.402Z,6.27
2019-05-02T18:06:46.799Z,6.60
2019-05-02T18:09:15.921Z,7.27
2019-05-02T18:11:45.556Z,7.33
2019-05-02T18:14:19.521Z,6.67
2019-05-02T18:16:51.887Z,6.47
2019-05-02T18:19:23.592Z,8.83
2019-05-02T18:21:52.509Z,14.07
2019-05-02T18:24:22.321Z,8.77
2019-05-02T18:26:52.405Z,8.07
2019-05-02T18:29:22.126Z,8.57
2019-05-02T18:31:52.201Z,9.27
2019-05-02T18:34:25.126Z,7.47
2019-05-02T18:36:57.316Z,7.47
2019-05-02T18:39:25.149Z,7.63
2019-05-02T18:41:55.339Z,7.93
2019-05-02T18:44:25.219Z,8.67
2019-05-02T18:46:57.791Z,8.90
2019-05-02T18:49:27.753Z,11.13
2019-05-02T18:51:57.789Z,9.97
2019-05-02T18:54:27.846Z,9.67
2019-05-02T18:56:57.784Z,8.77
2019-05-02T18:59:27.800Z,8.40
2019-05-02T19:01:59.565Z,7.50
2019-05-02T19:04:35.209Z,8.90
2019-05-02T19:07:02.847Z,9.77
2019-05-02T19:09:33.768Z,12.40
2019-05-02T19:12:05.822Z,10.23
2019-05-02T19:14:35.270Z,11.70
2019-05-02T19:17:07.293Z,12.97
2019-05-02T19:19:37.183Z,8.70
2019-05-02T19:22:12.453Z,7.93
2019-05-02T19:24:39.134Z,9.37
2019-05-02T19:27:12.684Z,8.63
2019-05-02T19:29:42.532Z,9.70
2019-05-02T19:32:17.077Z,10.23
2019-05-02T19:34:44.171Z,10.90
2019-05-02T19:37:14.230Z,11.07
2019-05-02T19:39:48.795Z,10.10
2019-05-02T19:42:22.589Z,10.23
2019-05-02T19:44:49.466Z,13.87
2019-05-02T19:47:19.304Z,20.23
2019-05-02T19:49:52.373Z,47.40
2019-05-02T19:52:22.190Z,25.27
2019-05-02T19:54:52.916Z,17.83
2019-05-02T19:57:26.333Z,66.00
2019-05-02T19:59:57.187Z,34.40
2019-05-02T20:02:25.770Z,87.30
2019-05-02T20:04:55.528Z,76.90
2019-05-02T20:07:25.625Z,21.63
2019-05-02T20:09:55.274Z,26.70
2019-05-02T20:12:24.856Z,19.70
2019-05-02T20:14:54.309Z,19.33
2019-05-02T20:17:24.553Z,17.70
2019-05-02T20:19:57.813Z,18.03
2019-05-02T20:22:29.044Z,17.23
2019-05-02T20:25:01.184Z,15.83
2019-05-02T20:27:32.813Z,16.83
2019-05-02T20:30:02.993Z,16.43
2019-05-02T20:32:32.717Z,17.30
2019-05-02T20:35:02.254Z,15.83
2019-05-02T20:37:32.468Z,15.93
2019-05-02T20:40:02.835Z,16.00
2019-05-02T20:42:32.699Z,16.57
2019-05-02T20:45:02.476Z,16.43
2019-05-02T20:47:31.917Z,16.57
2019-05-02T20:50:02.629Z,16.03
2019-05-02T20:52:32.557Z,16.07
2019-05-02T20:55:02.500Z,16.77
2019-05-02T20:57:32.000Z,17.80
2019-05-02T21:00:01.984Z,17.03
2019-05-02T21:02:31.864Z,17.03
2019-05-02T21:05:02.706Z,17.53
2019-05-02T21:07:43.693Z,17.63
2019-05-02T21:10:21.753Z,17.57
2019-05-02T21:12:52.624Z,16.73
2019-05-02T21:15:22.318Z,15.80
2019-05-02T21:17:52.014Z,17.60
2019-05-02T21:20:21.895Z,17.07
2019-05-02T21:22:52.924Z,16.70
2019-05-02T21:25:23.161Z,16.37
2019-05-02T21:27:52.884Z,16.63
2019-05-02T21:30:26.601Z,16.73
2019-05-02T21:32:56.571Z,17.27
2019-05-02T21:35:26.199Z,17.33
2019-05-02T21:37:56.056Z,17.00
2019-05-02T21:40:25.893Z,17.20
2019-05-02T21:42:55.726Z,17.57
2019-05-02T21:45:25.636Z,17.43
2019-05-02T21:47:55.115Z,16.30
2019-05-02T21:50:44.769Z,16.90
2019-05-02T21:53:25.642Z,16.37
2019-05-02T21:56:06.411Z,16.70
2019-05-02T21:58:36.085Z,18.97
2019-05-02T22:01:13.077Z,37.23
2019-05-02T22:03:42.527Z,29.37
2019-05-02T22:06:12.385Z,36.90
2019-05-02T22:08:41.995Z,107.57
2019-05-02T22:11:12.246Z,55.43
2019-05-02T22:13:43.252Z,30.60
2019-05-02T22:16:13.035Z,21.20
2019-05-02T22:18:42.814Z,19.93
2019-05-02T22:21:13.051Z,19.27
2019-05-02T22:23:42.684Z,18.70
2019-05-02T22:26:12.792Z,19.30
2019-05-02T22:28:42.404Z,19.83
2019-05-02T22:31:12.315Z,19.77
2019-05-02T22:33:44.596Z,20.37
2019-05-02T22:36:13.103Z,19.80
2019-05-02T22:38:52.722Z,19.70
2019-05-02T22:41:22.206Z,18.00
2019-05-02T22:43:51.769Z,20.00
2019-05-02T22:46:39.255Z,20.30
2019-05-02T22:49:08.899Z,22.33
2019-05-02T22:51:38.819Z,19.47
2019-05-02T22:54:20.787Z,20.03
2019-05-02T22:56:39.816Z,20.07
2019-05-02T22:59:09.194Z,18.60
2019-05-02T23:01:38.761Z,18.67
2019-05-02T23:04:08.214Z,18.80
2019-05-02T23:06:38.106Z,18.60
2019-05-02T23:09:08.654Z,19.37
2019-05-02T23:11:38.625Z,17.10
2019-05-02T23:14:08.266Z,17.20
2019-05-02T23:16:38.117Z,17.60
2019-05-02T23:19:07.516Z,18.13
2019-05-02T23:21:37.044Z,18.43
2019-05-02T23:24:11.725Z,16.63
2019-05-02T23:27:00.336Z,18.80
2019-05-02T23:29:31.740Z,27.90
2019-05-02T23:32:02.379Z,25.53
2019-05-02T23:34:32.442Z,19.97
2019-05-02T23:37:02.589Z,26.17
2019-05-02T23:39:32.393Z,18.37
2019-05-02T23:42:02.078Z,18.60
2019-05-02T23:44:31.541Z,24.83
2019-05-02T23:47:02.335Z,20.20
2019-05-02T23:49:32.470Z,32.17
2019-05-02T23:52:02.313Z,32.87
2019-05-02T23:54:32.494Z,24.63
2019-05-02T23:57:02.039Z,17.47
2019-05-02T23:59:31.844Z,17.20
